Time;durP1;ratioP1;P1;durP2;ratioP2;P2;SDS_P1;SDS_P2;PMS_P1;PMS_P2;Temp;Humidity;BMP_temperature;BMP_pressure;BME280_temperature;BME280_humidity;BME280_pressure;Samples;Min_cycle;Max_cycle;Signal;HPM_P1;HPM_P2
2023/10/12 00:02:08;;;;;;;6.53;4.43;;;18.90;99.90;;;;;;5119646;28;20016;-68
2023/10/12 00:04:38;;;;;;;6.40;4.30;;;18.90;99.90;;;;;;5117374;28;20023;-68
2023/10/12 00:07:42;;;;;;;7.22;3.90;;;18.90;99.90;;;;;;5120063;28;20027;-68
2023/10/12 00:10:19;;;;;;;5.80;4.07;;;18.90;99.90;;;;;;5115945;28;20040;-69
2023/10/12 00:12:46;;;;;;;9.05;4.20;;;19.00;99.90;;;;;;5100538;28;20019;-69
2023/10/12 00:17:53;;;;;;;7.07;4.07;;;19.00;99.90;;;;;;5121266;27;20416;-69
2023/10/12 00:23:10;;;;;;;11.38;4.70;;;18.90;99.90;;;;;;5119831;28;20019;-69
2023/10/12 00:25:45;;;;;;;7.07;3.95;;;18.90;99.90;;;;;;5119301;28;20023;-68
2023/10/12 00:28:19;;;;;;;7.55;4.57;;;18.90;99.90;;;;;;5119581;28;20099;-69
2023/10/12 00:30:47;;;;;;;9.35;4.13;;;18.90;99.90;;;;;;5119225;28;20514;-68
2023/10/12 00:33:13;;;;;;;6.40;3.92;;;18.90;99.90;;;;;;5119226;28;20031;-69
2023/10/12 00:35:39;;;;;;;6.97;4.43;;;18.90;99.90;;;;;;5118706;28;20036;-68
2023/10/12 00:38:15;;;;;;;8.52;4.57;;;18.90;99.90;;;;;;5119087;28;20019;-68
2023/10/12 00:40:48;;;;;;;7.15;4.20;;;18.80;99.90;;;;;;5119153;28;20023;-68
2023/10/12 00:43:15;;;;;;;7.25;4.47;;;18.80;99.90;;;;;;5119099;28;20012;-68
2023/10/12 00:45:41;;;;;;;7.07;4.22;;;18.80;99.90;;;;;;5100702;28;20034;-68
2023/10/12 00:48:07;;;;;;;7.18;4.40;;;18.80;99.90;;;;;;5118797;28;20012;-68
2023/10/12 00:50:36;;;;;;;9.02;4.35;;;18.80;99.90;;;;;;5119010;28;20020;-68
2023/10/12 00:53:14;;;;;;;9.00;4.50;;;18.80;99.90;;;;;;5118851;28;20029;-68
2023/10/12 00:55:41;;;;;;;9.80;5.03;;;18.80;99.90;;;;;;5118898;28;20387;-68
2023/10/12 00:58:10;;;;;;;8.48;4.45;;;18.70;99.90;;;;;;5118817;28;20107;-68
2023/10/12 01:00:46;;;;;;;8.20;4.57;;;18.70;99.90;;;;;;5118386;28;20499;-68
2023/10/12 01:08:36;;;;;;;8.40;4.38;;;18.70;99.90;;;;;;5118648;28;20027;-68
2023/10/12 01:11:05;;;;;;;6.35;4.07;;;18.70;99.90;;;;;;5113207;28;20027;-68
2023/10/12 01:13:35;;;;;;;8.18;4.30;;;18.70;99.90;;;;;;5118689;28;20024;-69
2023/10/12 01:16:45;;;;;;;8.55;4.57;;;18.60;99.90;;;;;;5100105;28;20031;-69
2023/10/12 01:18:59;;;;;;;9.70;4.40;;;18.70;99.90;;;;;;5109940;27;20035;-69
2023/10/12 01:21:28;;;;;;;10.70;4.63;;;18.70;99.90;;;;;;5118286;28;20364;-69
2023/10/12 01:24:02;;;;;;;7.88;4.63;;;18.70;99.90;;;;;;5118296;28;20034;-69
2023/10/12 01:26:31;;;;;;;6.20;3.63;;;18.70;99.90;;;;;;5118359;28;20127;-69
2023/10/12 01:28:58;;;;;;;7.93;4.50;;;18.70;99.90;;;;;;5118201;28;20039;-69
2023/10/12 01:31:32;;;;;;;9.85;4.43;;;18.70;99.90;;;;;;5118249;28;20023;-69
2023/10/12 01:34:01;;;;;;;8.95;4.60;;;18.70;99.90;;;;;;5117688;28;20035;-68
2023/10/12 01:36:32;;;;;;;9.27;4.30;;;18.70;99.90;;;;;;5118135;28;20035;-68
2023/10/12 01:39:11;;;;;;;7.25;4.60;;;18.70;99.90;;;;;;5118342;28;20016;-68
2023/10/12 01:41:42;;;;;;;8.00;5.03;;;18.70;99.90;;;;;;5117458;28;20344;-68
2023/10/12 01:44:11;;;;;;;6.65;4.47;;;18.70;99.90;;;;;;5118170;28;20032;-68
2023/10/12 01:46:41;;;;;;;8.95;4.47;;;18.70;99.90;;;;;;5117659;28;20050;-68
2023/10/12 01:49:11;;;;;;;7.40;4.50;;;18.70;99.90;;;;;;5117734;28;20039;-68
2023/10/12 01:51:42;;;;;;;6.18;4.57;;;18.70;99.90;;;;;;5117921;28;20020;-68
2023/10/12 01:54:12;;;;;;;8.20;4.68;;;18.70;99.90;;;;;;5099514;28;20024;-69
2023/10/12 01:56:40;;;;;;;8.00;4.97;;;18.70;99.90;;;;;;5117656;28;20027;-68
2023/10/12 01:59:07;;;;;;;8.57;4.90;;;18.70;99.90;;;;;;5117589;28;20024;-68
2023/10/12 02:01:41;;;;;;;8.20;4.47;;;18.60;99.90;;;;;;5117677;28;20028;-68
2023/10/12 02:04:07;;;;;;;9.77;4.97;;;18.60;99.90;;;;;;5117677;28;20037;-68
2023/10/12 02:06:32;;;;;;;7.10;4.07;;;18.60;99.90;;;;;;5117737;28;20487;-68
2023/10/12 02:09:10;;;;;;;8.68;5.00;;;18.60;99.90;;;;;;5117867;28;20049;-68
2023/10/12 02:11:43;;;;;;;6.55;4.53;;;18.60;99.90;;;;;;5118000;28;20494;-68
2023/10/12 02:14:11;;;;;;;8.25;5.07;;;18.60;99.90;;;;;;5117580;28;20047;-68
2023/10/12 02:16:38;;;;;;;8.10;4.43;;;18.60;99.90;;;;;;5099367;28;20031;-68
2023/10/12 02:19:04;;;;;;;8.15;4.97;;;18.60;99.90;;;;;;5118491;28;20121;-69
2023/10/12 02:21:33;;;;;;;8.10;4.72;;;18.60;99.90;;;;;;5099300;28;20035;-68
2023/10/12 02:26:36;;;;;;;8.63;4.78;;;18.60;99.90;;;;;;5117686;28;20028;-68
2023/10/12 02:31:39;;;;;;;7.47;4.40;;;18.60;99.90;;;;;;5117729;28;20035;-70
2023/10/12 02:34:16;;;;;;;7.90;4.88;;;18.60;99.90;;;;;;5098762;28;20020;-69
2023/10/12 02:37:16;;;;;;;7.50;5.25;;;18.60;99.90;;;;;;5117372;28;20027;-69
2023/10/12 02:39:46;;;;;;;9.98;4.68;;;18.60;99.90;;;;;;5117498;28;20027;-69
2023/10/12 02:44:56;;;;;;;11.25;4.75;;;18.60;99.90;;;;;;5117593;28;20103;-68
2023/10/12 02:47:23;;;;;;;9.23;5.07;;;18.60;99.90;;;;;;5117454;28;20488;-68
2023/10/12 02:50:00;;;;;;;9.57;5.00;;;18.60;99.90;;;;;;5116962;28;20024;-68
2023/10/12 02:52:30;;;;;;;9.98;5.15;;;18.60;99.90;;;;;;5099115;28;20471;-68
2023/10/12 02:54:57;;;;;;;7.65;5.03;;;18.50;99.90;;;;;;5100899;28;20373;-68
2023/10/12 02:57:33;;;;;;;8.75;5.20;;;18.50;99.90;;;;;;5117191;28;20023;-68
2023/10/12 03:00:14;;;;;;;8.18;4.90;;;18.50;99.90;;;;;;5119105;28;20416;-68
2023/10/12 03:02:42;;;;;;;6.90;4.60;;;18.60;99.90;;;;;;5121073;28;20085;-68
2023/10/12 03:05:08;;;;;;;8.40;4.93;;;18.60;99.90;;;;;;5120901;28;20016;-68
2023/10/12 03:07:40;;;;;;;9.18;4.97;;;18.60;99.90;;;;;;5121059;28;20055;-68
2023/10/12 03:10:07;;;;;;;7.35;4.93;;;18.70;99.90;;;;;;5121403;27;20078;-68
2023/10/12 03:12:41;;;;;;;10.35;5.40;;;18.60;99.90;;;;;;5102549;28;20036;-68
2023/10/12 03:15:13;;;;;;;7.80;4.63;;;18.70;99.90;;;;;;5121061;28;20114;-68
2023/10/12 03:17:45;;;;;;;8.50;4.97;;;18.70;99.90;;;;;;5103380;28;20110;-68
2023/10/12 03:20:23;;;;;;;10.02;5.00;;;18.70;99.90;;;;;;5120699;28;20396;-68
2023/10/12 03:22:52;;;;;;;10.27;5.53;;;18.70;99.90;;;;;;5120935;28;20039;-68
2023/10/12 03:28:12;;;;;;;8.82;4.78;;;18.80;99.90;;;;;;5120547;28;20035;-68
2023/10/12 03:30:43;;;;;;;7.45;4.45;;;18.70;99.90;;;;;;5120550;28;20023;-68
2023/10/12 03:33:15;;;;;;;8.85;4.75;;;18.80;99.90;;;;;;5120330;28;20035;-68
2023/10/12 03:35:57;;;;;;;10.40;5.35;;;18.80;99.90;;;;;;5120849;28;20019;-68
2023/10/12 03:38:25;;;;;;;8.15;4.38;;;18.80;99.90;;;;;;5120431;28;20031;-68
2023/10/12 03:41:30;;;;;;;9.68;5.55;;;18.70;99.90;;;;;;5120262;28;20027;-68
2023/10/12 03:43:40;;;;;;;8.38;4.93;;;18.70;99.90;;;;;;5120143;28;20558;-68
2023/10/12 03:46:18;;;;;;;9.55;4.95;;;18.80;99.90;;;;;;5120310;28;20019;-68
2023/10/12 03:53:56;;;;;;;9.73;5.25;;;18.80;99.90;;;;;;5120357;28;20025;-69
2023/10/12 03:56:23;;;;;;;8.88;4.85;;;18.80;99.90;;;;;;5115924;28;20024;-69
2023/10/12 03:58:58;;;;;;;9.00;5.22;;;18.80;99.90;;;;;;5119965;28;20015;-69
2023/10/12 04:01:43;;;;;;;9.05;4.88;;;18.80;99.90;;;;;;5119537;28;20051;-69
2023/10/12 04:04:10;;;;;;;10.85;5.82;;;18.80;99.90;;;;;;5119582;28;20020;-69
2023/10/12 04:09:44;;;;;;;8.40;4.80;;;18.80;99.90;;;;;;5056835;28;20021;-68
2023/10/12 04:12:35;;;;;;;8.60;4.90;;;18.80;99.90;;;;;;5056838;28;20590;-68
2023/10/12 04:15:06;;;;;;;8.40;4.90;;;18.80;99.90;;;;;;5078243;28;20035;-68
2023/10/12 04:20:22;;;;;;;9.73;4.50;;;18.80;99.90;;;;;;5119717;28;20073;-68
2023/10/12 04:28:17;;;;;;;9.63;4.85;;;18.90;99.90;;;;;;5105546;28;20067;-69
2023/10/12 04:33:24;;;;;;;8.85;4.80;;;18.80;99.90;;;;;;5119349;28;20591;-68
2023/10/12 04:43:33;;;;;;;7.95;5.03;;;18.70;99.90;;;;;;5119245;28;20034;-68
2023/10/12 04:48:43;;;;;;;8.80;4.80;;;18.70;99.90;;;;;;5118418;28;20027;-68
2023/10/12 04:51:19;;;;;;;10.05;4.30;;;18.70;99.90;;;;;;5118941;28;20039;-69
2023/10/12 04:53:58;;;;;;;8.80;4.28;;;18.70;99.90;;;;;;5118933;28;20023;-69
2023/10/12 04:56:26;;;;;;;6.93;4.38;;;18.70;99.90;;;;;;5118713;28;20023;-68
2023/10/12 04:58:59;;;;;;;9.82;4.97;;;18.70;99.90;;;;;;5118997;28;20020;-68
2023/10/12 05:01:29;;;;;;;6.85;4.05;;;18.70;99.90;;;;;;5118583;28;20072;-68
2023/10/12 05:04:34;;;;;;;7.88;4.47;;;18.80;99.90;;;;;;5118656;28;20467;-68
2023/10/12 05:09:38;;;;;;;9.45;5.07;;;18.80;99.90;;;;;;5125388;27;20054;-68
2023/10/12 05:12:04;;;;;;;7.05;4.55;;;18.80;99.90;;;;;;5124682;27;20027;-68
2023/10/12 05:14:31;;;;;;;10.00;5.13;;;18.80;99.90;;;;;;5100245;28;20024;-68
2023/10/12 05:16:56;;;;;;;8.95;4.63;;;18.80;99.90;;;;;;5118889;28;20051;-69
2023/10/12 05:19:22;;;;;;;11.60;4.97;;;18.80;99.90;;;;;;5131615;27;20076;-69
2023/10/12 05:21:48;;;;;;;9.88;5.25;;;18.80;99.90;;;;;;5117603;28;20032;-69
2023/10/12 05:24:13;;;;;;;7.85;4.88;;;18.80;99.90;;;;;;5118370;28;20024;-69
2023/10/12 05:26:39;;;;;;;8.68;4.80;;;18.80;99.90;;;;;;5118352;28;20433;-69
2023/10/12 05:29:26;;;;;;;12.18;5.38;;;18.90;99.90;;;;;;5118586;28;20091;-69
2023/10/12 05:32:18;;;;;;;10.13;4.97;;;18.80;99.90;;;;;;5099708;28;20735;-69
2023/10/12 05:34:45;;;;;;;10.23;5.20;;;18.80;99.90;;;;;;5117787;28;20047;-69
2023/10/12 05:39:52;;;;;;;8.88;4.85;;;18.80;99.90;;;;;;5118151;28;20391;-68
2023/10/12 05:42:25;;;;;;;7.47;4.45;;;18.80;99.90;;;;;;5117789;28;20083;-68
2023/10/12 05:44:51;;;;;;;;;;;18.80;99.90;;;;;;5118466;28;20015;-69
2023/10/12 05:47:18;;;;;;;7.13;3.97;;;18.90;99.90;;;;;;5099280;28;19904;-68
2023/10/12 05:49:50;;;;;;;6.07;4.00;;;18.90;99.90;;;;;;5099154;28;20027;-69
2023/10/12 05:52:17;;;;;;;10.82;5.20;;;18.90;99.90;;;;;;5099223;28;20020;-69
2023/10/12 05:54:43;;;;;;;12.18;4.70;;;18.90;99.90;;;;;;5117219;28;20019;-68
2023/10/12 05:57:19;;;;;;;7.95;4.78;;;18.90;99.90;;;;;;5117207;28;20020;-69
2023/10/12 05:59:47;;;;;;;9.27;4.82;;;18.90;99.90;;;;;;5116822;28;20453;-69
2023/10/12 06:02:17;;;;;;;9.85;4.80;;;18.90;99.90;;;;;;5098874;28;20042;-69
2023/10/12 06:04:47;;;;;;;8.00;4.90;;;18.90;99.90;;;;;;5117315;28;20019;-69
2023/10/12 06:07:12;;;;;;;8.75;4.97;;;18.90;99.90;;;;;;5117077;28;20384;-69
2023/10/12 06:09:38;;;;;;;10.88;4.95;;;18.90;99.90;;;;;;5117151;28;20024;-69
2023/10/12 06:12:13;;;;;;;9.93;4.88;;;19.00;99.90;;;;;;5117171;28;20523;-69
2023/10/12 06:14:39;;;;;;;5.45;4.20;;;18.90;99.90;;;;;;5100241;28;20028;-70
2023/10/12 06:17:06;;;;;;;11.40;4.50;;;18.90;99.90;;;;;;5100122;28;20023;-69
2023/10/12 06:19:36;;;;;;;8.15;4.50;;;19.00;99.90;;;;;;5117512;28;20028;-69
2023/10/12 06:22:23;;;;;;;9.82;4.75;;;19.00;99.90;;;;;;5099197;28;20023;-69
2023/10/12 06:24:52;;;;;;;9.27;4.32;;;19.00;99.90;;;;;;5097070;28;20516;-68
2023/10/12 06:29:44;;;;;;;9.93;4.50;;;19.00;99.90;;;;;;5115889;28;20102;-68
2023/10/12 06:32:16;;;;;;;6.80;4.53;;;19.00;99.90;;;;;;5099603;28;20027;-68
2023/10/12 06:34:42;;;;;;;11.15;4.93;;;19.00;99.90;;;;;;5120493;28;20023;-67
2023/10/12 06:37:30;;;;;;;12.15;4.82;;;19.00;99.90;;;;;;5120090;28;20023;-68
2023/10/12 06:42:38;;;;;;;8.20;4.43;;;19.00;99.90;;;;;;5121318;28;20109;-68
2023/10/12 06:45:07;;;;;;;10.32;4.45;;;19.10;99.90;;;;;;5121235;28;20429;-68
2023/10/12 06:47:42;;;;;;;8.65;4.22;;;19.10;99.90;;;;;;5121147;28;20012;-69
2023/10/12 06:50:20;;;;;;;9.80;4.78;;;19.10;99.90;;;;;;5102319;28;20027;-68
2023/10/12 06:52:45;;;;;;;10.70;4.43;;;19.10;99.90;;;;;;5120571;28;20020;-68
2023/10/12 06:55:21;;;;;;;7.25;4.32;;;19.10;99.90;;;;;;5120300;28;20058;-69
2023/10/12 06:57:52;;;;;;;10.50;4.45;;;19.10;99.90;;;;;;5120436;28;20505;-68
2023/10/12 07:00:33;;;;;;;7.68;4.78;;;19.10;99.90;;;;;;5120029;28;20051;-68
2023/10/12 07:03:00;;;;;;;10.15;4.65;;;19.10;99.90;;;;;;5095114;28;20043;-69
2023/10/12 07:05:32;;;;;;;9.30;4.30;;;19.10;99.90;;;;;;5120295;28;20041;-69
2023/10/12 07:07:58;;;;;;;10.10;4.40;;;19.20;99.90;;;;;;5116687;28;20023;-69
2023/10/12 07:10:28;;;;;;;11.02;4.80;;;19.20;99.90;;;;;;5120526;27;20613;-70
2023/10/12 07:12:59;;;;;;;12.82;7.22;;;19.20;99.90;;;;;;5115152;28;20095;-70
2023/10/12 07:15:31;;;;;;;12.38;5.47;;;19.30;99.90;;;;;;5101241;28;20028;-69
2023/10/12 07:17:57;;;;;;;13.88;5.57;;;19.30;99.90;;;;;;5116904;27;20085;-69
2023/10/12 07:23:14;;;;;;;16.42;7.82;;;19.40;99.90;;;;;;5119527;28;20049;-68
2023/10/12 07:25:45;;;;;;;12.27;5.55;;;19.40;99.90;;;;;;5117363;28;20047;-68
2023/10/12 07:33:32;;;;;;;10.48;5.22;;;19.50;99.90;;;;;;5118184;28;20104;-70
2023/10/12 07:36:17;;;;;;;10.98;5.03;;;19.60;99.90;;;;;;5118758;28;20103;-70
2023/10/12 07:38:55;;;;;;;11.30;5.30;;;19.60;99.90;;;;;;5119281;28;20535;-69
2023/10/12 07:41:33;;;;;;;8.15;4.57;;;19.60;99.90;;;;;;5101390;28;20443;-69
2023/10/12 07:43:59;;;;;;;8.63;4.53;;;19.70;99.90;;;;;;5120076;28;20093;-69
2023/10/12 07:46:25;;;;;;;10.60;4.32;;;19.70;99.90;;;;;;5118684;28;20476;-69
2023/10/12 07:48:51;;;;;;;10.48;4.55;;;19.80;99.90;;;;;;5100479;28;20032;-69
2023/10/12 07:51:26;;;;;;;11.63;4.30;;;19.80;99.90;;;;;;5119051;28;20612;-68
2023/10/12 07:54:00;;;;;;;14.77;4.43;;;19.80;99.90;;;;;;5118999;28;20019;-69
2023/10/12 07:56:34;;;;;;;8.52;4.20;;;19.90;99.90;;;;;;5119318;28;20043;-70
2023/10/12 07:59:00;;;;;;;10.32;4.47;;;19.90;99.90;;;;;;5118812;28;20019;-71
2023/10/12 08:03:59;;;;;;;11.60;4.45;;;20.10;99.90;;;;;;5114751;27;20032;-65
2023/10/12 08:06:36;;;;;;;7.50;3.55;;;20.00;99.90;;;;;;5117768;28;20022;-65
2023/10/12 08:09:20;;;;;;;10.45;4.55;;;20.10;99.90;;;;;;5100898;27;20034;-66
2023/10/12 08:11:46;;;;;;;8.63;4.05;;;20.10;99.90;;;;;;5099354;28;20027;-65
2023/10/12 08:19:43;;;;;;;7.97;4.00;;;20.20;99.90;;;;;;5118020;28;20052;-66
2023/10/12 08:25:07;;;;;;;8.35;4.28;;;20.30;99.90;;;;;;5088543;28;20031;-66
2023/10/12 08:30:48;;;;;;;10.57;3.60;;;20.40;99.90;;;;;;5066381;28;20037;-67
2023/10/12 08:33:14;;;;;;;6.45;3.67;;;20.40;99.90;;;;;;5118147;28;20027;-65
2023/10/12 08:36:17;;;;;;;7.47;3.78;;;20.40;99.90;;;;;;5115627;28;20042;-65
2023/10/12 08:38:40;;;;;;;7.55;3.45;;;20.50;99.90;;;;;;5118023;28;20020;-66
2023/10/12 08:41:20;;;;;;;5.38;3.22;;;20.50;99.90;;;;;;5116911;28;20027;-65
2023/10/12 08:43:48;;;;;;;7.15;3.45;;;20.60;99.90;;;;;;5117293;28;20020;-65
2023/10/12 08:46:47;;;;;;;8.32;3.80;;;20.60;99.90;;;;;;5115570;28;20020;-65
2023/10/12 08:52:04;;;;;;;9.82;3.83;;;20.70;99.90;;;;;;5118412;28;20121;-65
2023/10/12 08:54:37;;;;;;;7.35;3.60;;;20.60;99.90;;;;;;5098215;28;20043;-65
2023/10/12 08:57:19;;;;;;;6.93;3.45;;;20.70;99.90;;;;;;5115507;28;20042;-65
2023/10/12 09:00:20;;;;;;;9.85;3.88;;;20.60;99.90;;;;;;5116752;28;20044;-65
2023/10/12 09:02:49;;;;;;;8.30;3.55;;;20.70;99.90;;;;;;5117683;28;20036;-66
2023/10/12 09:05:24;;;;;;;9.85;4.05;;;20.70;99.90;;;;;;5116248;28;20024;-65
2023/10/12 09:08:06;;;;;;;6.30;3.78;;;20.60;99.90;;;;;;5118234;28;20032;-69
2023/10/12 09:10:56;;;;;;;7.07;3.17;;;20.60;99.90;;;;;;5118366;27;20019;-68
2023/10/12 09:13:29;;;;;;;7.70;3.80;;;20.70;99.90;;;;;;5118501;28;20084;-68
2023/10/12 09:15:59;;;;;;;;;;;20.70;99.90;;;;;;5118791;28;20396;-68
2023/10/12 09:18:30;;;;;;;5.85;3.10;;;20.80;99.90;;;;;;5118698;27;19908;-67
2023/10/12 09:23:31;;;;;;;5.97;3.38;;;20.80;99.90;;;;;;5118682;28;20476;-69
2023/10/12 09:36:27;;;;;;;5.53;2.90;;;21.00;99.90;;;;;;5117789;27;20047;-67
2023/10/12 09:38:55;;;;;;;7.22;2.83;;;21.00;99.90;;;;;;5115724;28;20024;-67
2023/10/12 09:41:28;;;;;;;6.15;2.65;;;21.00;99.90;;;;;;5115835;28;20077;-69
2023/10/12 09:43:56;;;;;;;7.15;3.28;;;21.10;99.90;;;;;;5099592;28;20020;-69
2023/10/12 09:46:25;;;;;;;5.45;2.80;;;21.10;99.90;;;;;;5096667;28;20024;-68
2023/10/12 09:49:06;;;;;;;6.38;2.90;;;21.20;99.90;;;;;;5102970;28;20446;-69
2023/10/12 09:51:36;;;;;;;5.50;2.53;;;21.20;99.90;;;;;;5099831;28;20434;-70
2023/10/12 09:54:15;;;;;;;6.60;2.55;;;21.20;99.90;;;;;;5117872;28;20024;-67
2023/10/12 09:56:52;;;;;;;6.18;2.33;;;21.30;99.90;;;;;;5117584;28;20027;-67
2023/10/12 09:59:19;;;;;;;5.40;2.30;;;21.50;99.90;;;;;;5117705;28;20494;-67
2023/10/12 10:04:34;;;;;;;5.72;2.30;;;21.70;99.90;;;;;;5117254;28;20149;-69
2023/10/12 10:07:26;;;;;;;6.25;2.08;;;21.70;99.90;;;;;;5087254;28;20032;-68
2023/10/12 10:09:54;;;;;;;3.33;1.67;;;21.70;99.90;;;;;;5101234;28;20062;-70
2023/10/12 10:12:22;;;;;;;4.53;1.77;;;21.70;99.90;;;;;;5096975;28;20476;-70
2023/10/12 10:15:00;;;;;;;5.47;2.00;;;21.70;99.90;;;;;;5116022;28;20503;-73
2023/10/12 10:17:52;;;;;;;4.15;1.85;;;21.80;99.90;;;;;;5099571;28;20534;-70
2023/10/12 10:23:00;;;;;;;3.90;1.70;;;21.80;99.90;;;;;;5117472;28;20471;-71
2023/10/12 10:25:34;;;;;;;3.58;1.60;;;21.80;99.90;;;;;;5116543;28;20028;-73
2023/10/12 10:28:09;;;;;;;5.43;1.95;;;21.80;99.90;;;;;;5097748;28;20026;-73
2023/10/12 10:30:42;;;;;;;6.55;1.88;;;21.90;99.90;;;;;;5100313;28;20020;-73
2023/10/12 10:33:20;;;;;;;4.95;1.73;;;22.00;99.90;;;;;;5097689;28;20073;-73
2023/10/12 10:36:24;;;;;;;3.35;1.83;;;22.20;99.90;;;;;;5114310;28;20012;-74
2023/10/12 10:38:54;;;;;;;3.38;1.77;;;22.30;99.90;;;;;;5116485;28;20117;-68
2023/10/12 10:41:38;;;;;;;4.80;1.80;;;22.40;99.90;;;;;;5099786;28;20030;-69
2023/10/12 10:44:08;;;;;;;3.50;1.77;;;22.40;99.90;;;;;;5098448;28;20027;-70
2023/10/12 10:46:39;;;;;;;4.68;1.80;;;22.50;99.90;;;;;;5116245;28;20012;-69
2023/10/12 10:49:06;;;;;;;3.60;1.70;;;22.50;99.90;;;;;;5097332;28;20483;-69
2023/10/12 10:51:32;;;;;;;2.70;1.67;;;22.50;99.90;;;;;;5095862;28;20020;-69
2023/10/12 10:53:58;;;;;;;2.75;1.52;;;22.40;99.90;;;;;;5115696;28;20027;-67
2023/10/12 10:56:35;;;;;;;3.78;1.55;;;22.30;99.90;;;;;;5099930;28;20398;-67
2023/10/12 10:59:11;;;;;;;6.13;1.73;;;22.30;99.90;;;;;;5111836;28;20027;-68
2023/10/12 11:01:41;;;;;;;5.10;1.90;;;22.20;99.90;;;;;;5116277;28;20032;-67
2023/10/12 11:04:17;;;;;;;4.85;1.70;;;22.30;99.90;;;;;;5112543;28;20506;-67
2023/10/12 11:06:47;;;;;;;4.05;1.42;;;22.30;99.90;;;;;;5114835;28;20024;-67
2023/10/12 11:09:17;;;;;;;5.20;1.95;;;22.30;99.90;;;;;;5107763;28;20094;-67
2023/10/12 11:11:48;;;;;;;3.85;1.30;;;22.40;99.90;;;;;;5114991;28;20028;-66
2023/10/12 11:14:17;;;;;;;4.95;1.48;;;22.40;99.90;;;;;;5115060;28;20119;-67
2023/10/12 11:16:46;;;;;;;3.55;1.63;;;22.50;99.90;;;;;;5098347;28;20034;-68
2023/10/12 11:19:12;;;;;;;4.68;1.52;;;22.70;99.90;;;;;;5115034;28;20484;-68
2023/10/12 11:21:57;;;;;;;3.58;1.70;;;22.80;99.90;;;;;;5118221;28;20035;-68
2023/10/12 11:24:24;;;;;;;2.88;1.50;;;23.00;99.90;;;;;;5119439;28;20114;-68
2023/10/12 11:26:57;;;;;;;3.00;1.35;;;23.00;99.90;;;;;;5100761;28;20028;-67
2023/10/12 11:29:26;;;;;;;3.42;1.58;;;23.10;99.90;;;;;;5118497;28;20028;-68
2023/10/12 11:32:10;;;;;;;6.63;1.90;;;23.20;99.90;;;;;;5118444;28;20454;-67
2023/10/12 11:34:52;;;;;;;4.22;1.50;;;23.20;99.90;;;;;;5118785;28;20475;-67
2023/10/12 11:37:18;;;;;;;2.97;1.23;;;23.00;99.90;;;;;;5117306;28;20035;-67
2023/10/12 11:39:51;;;;;;;5.80;1.75;;;22.90;99.90;;;;;;5115910;28;20019;-68
2023/10/12 11:42:17;;;;;;;3.53;1.50;;;22.90;99.90;;;;;;5118862;28;20031;-67
2023/10/12 11:44:45;;;;;;;4.47;1.45;;;23.00;99.90;;;;;;5118291;28;20058;-68
2023/10/12 11:47:25;;;;;;;4.25;1.40;;;22.90;99.90;;;;;;5118213;28;20024;-68
2023/10/12 11:49:55;;;;;;;2.85;1.55;;;22.90;99.90;;;;;;5099203;28;20016;-68
2023/10/12 11:52:34;;;;;;;4.07;1.40;;;22.80;99.90;;;;;;5099748;28;20020;-68
2023/10/12 11:55:06;;;;;;;4.75;1.35;;;22.80;99.90;;;;;;5100098;28;20487;-67
2023/10/12 11:57:41;;;;;;;5.07;1.95;;;22.80;99.90;;;;;;5116957;28;20076;-68
2023/10/12 12:00:53;;;;;;;4.78;1.50;;;22.90;99.90;;;;;;5118213;28;20057;-68
2023/10/12 12:02:59;;;;;;;3.33;1.45;;;22.90;99.90;;;;;;5106424;27;21399;-69
2023/10/12 12:05:33;;;;;;;3.60;1.60;;;22.90;99.90;;;;;;5095210;27;20032;-68
2023/10/12 12:08:14;;;;;;;3.92;1.42;;;22.80;99.90;;;;;;5126035;27;20037;-74
2023/10/12 12:13:20;;;;;;;3.40;1.50;;;22.90;99.90;;;;;;5120098;27;20038;-68
2023/10/12 12:15:46;;;;;;;4.85;1.67;;;23.00;99.90;;;;;;5122816;27;20479;-69
2023/10/12 12:18:22;;;;;;;5.10;1.73;;;22.90;99.90;;;;;;5120736;27;20094;-68
2023/10/12 12:20:50;;;;;;;4.57;1.65;;;22.90;99.90;;;;;;5119404;27;20022;-69
2023/10/12 12:23:19;;;;;;;3.58;1.50;;;23.00;99.90;;;;;;5122903;27;20060;-68
2023/10/12 12:25:46;;;;;;;4.15;1.60;;;23.00;99.90;;;;;;5120008;27;20024;-68
2023/10/12 12:28:21;;;;;;;3.97;1.65;;;23.00;99.90;;;;;;5120806;27;20110;-69
2023/10/12 12:30:55;;;;;;;4.68;1.80;;;23.20;99.90;;;;;;5121147;27;20007;-69
2023/10/12 12:33:21;;;;;;;4.82;1.77;;;23.30;99.90;;;;;;5120128;27;20019;-69
2023/10/12 12:35:48;;;;;;;5.40;1.88;;;23.50;99.90;;;;;;5118195;28;20354;-69
2023/10/12 12:40:59;;;;;;;3.97;1.48;;;23.40;99.90;;;;;;5117703;28;20106;-69
2023/10/12 12:43:25;;;;;;;2.33;1.20;;;23.40;99.90;;;;;;5117886;28;20016;-69
2023/10/12 12:45:52;;;;;;;3.92;1.38;;;23.30;99.90;;;;;;5099560;28;20022;-68
2023/10/12 12:48:19;;;;;;;5.50;1.65;;;23.30;99.90;;;;;;5118247;27;20020;-69
2023/10/12 12:50:47;;;;;;;4.80;1.52;;;23.40;99.90;;;;;;5117372;28;20012;-68
2023/10/12 12:53:18;;;;;;;4.22;1.65;;;23.30;99.90;;;;;;5118321;28;20020;-67
2023/10/12 12:55:44;;;;;;;3.33;1.60;;;23.40;99.90;;;;;;5109557;28;20072;-69
2023/10/12 12:58:15;;;;;;;4.03;1.20;;;23.50;99.90;;;;;;5117834;28;20019;-68
2023/10/12 13:00:47;;;;;;;4.60;1.88;;;23.80;99.90;;;;;;5117862;28;20105;-69
2023/10/12 13:03:16;;;;;;;4.25;1.33;;;23.90;99.90;;;;;;5098554;28;20059;-69
2023/10/12 13:05:42;;;;;;;6.32;1.67;;;24.00;99.90;;;;;;5118313;28;20023;-71
2023/10/12 13:08:11;;;;;;;3.38;1.33;;;24.00;99.90;;;;;;5100102;28;20015;-70
2023/10/12 13:10:37;;;;;;;6.53;1.48;;;24.00;99.90;;;;;;5119909;27;20051;-74
2023/10/12 13:13:04;;;;;;;3.75;1.50;;;23.80;99.90;;;;;;5118407;28;20438;-69
2023/10/12 13:15:32;;;;;;;2.97;1.33;;;23.90;99.90;;;;;;5118085;28;20061;-68
2023/10/12 13:17:59;;;;;;;4.80;1.42;;;23.90;99.90;;;;;;5118462;27;20049;-69
2023/10/12 13:20:29;;;;;;;2.63;1.13;;;24.00;99.90;;;;;;5099942;28;20019;-68
2023/10/12 13:22:58;;;;;;;2.85;1.20;;;24.00;99.90;;;;;;5100913;28;20027;-75
2023/10/12 13:25:26;;;;;;;2.10;1.00;;;23.90;99.90;;;;;;5098676;28;20049;-75
2023/10/12 13:27:52;;;;;;;4.07;1.20;;;23.90;99.90;;;;;;5099326;28;20016;-75
2023/10/12 13:30:18;;;;;;;3.17;1.00;;;23.90;99.90;;;;;;5117602;28;20040;-76
2023/10/12 13:32:48;;;;;;;2.85;1.10;;;24.00;99.90;;;;;;5117451;28;20504;-75
2023/10/12 13:38:02;;;;;;;3.20;1.35;;;23.80;99.90;;;;;;5117550;28;20030;-75
2023/10/12 13:40:30;;;;;;;3.63;1.10;;;23.50;99.90;;;;;;5118063;28;20039;-74
2023/10/12 13:43:06;;;;;;;4.30;1.10;;;23.50;99.90;;;;;;5097834;28;20077;-72
2023/10/12 13:45:35;;;;;;;2.85;1.10;;;23.50;99.90;;;;;;5115659;28;20038;-72
2023/10/12 13:48:01;;;;;;;3.00;1.20;;;23.60;99.90;;;;;;5116936;28;20008;-71
2023/10/12 13:50:27;;;;;;;3.30;1.10;;;23.60;99.90;;;;;;5117968;28;20110;-70
2023/10/12 13:52:53;;;;;;;4.60;1.13;;;23.70;99.90;;;;;;5117422;28;20024;-71
2023/10/12 13:55:18;;;;;;;4.03;1.30;;;23.70;99.90;;;;;;5117225;28;20027;-70
2023/10/12 13:57:55;;;;;;;5.38;1.45;;;23.90;99.90;;;;;;5115549;28;20054;-70
2023/10/12 14:00:25;;;;;;;2.92;1.00;;;24.00;99.90;;;;;;5116764;28;20047;-69
2023/10/12 14:02:54;;;;;;;2.35;0.90;;;24.10;99.90;;;;;;5103890;28;20028;-70
2023/10/12 14:05:24;;;;;;;3.80;1.00;;;24.20;99.90;;;;;;5117450;28;20092;-70
2023/10/12 14:07:55;;;;;;;4.20;0.93;;;24.10;99.70;;;;;;5114311;28;20020;-69
2023/10/12 14:10:22;;;;;;;7.47;1.58;;;24.20;99.90;;;;;;5129593;27;20038;-71
2023/10/12 14:12:47;;;;;;;4.38;1.30;;;24.10;99.90;;;;;;5117644;28;20400;-71
2023/10/12 14:15:14;;;;;;;3.08;1.30;;;24.10;99.80;;;;;;5117292;28;20024;-71
2023/10/12 14:17:39;;;;;;;3.97;1.20;;;24.00;99.90;;;;;;5117383;28;20468;-70
2023/10/12 14:20:08;;;;;;;2.28;0.90;;;24.00;99.40;;;;;;5117238;28;20027;-68
2023/10/12 14:22:34;;;;;;;3.55;1.35;;;24.00;99.80;;;;;;5098961;28;20027;-69
2023/10/12 14:25:06;;;;;;;4.30;1.23;;;24.00;99.80;;;;;;5117316;28;20023;-70
2023/10/12 14:27:33;;;;;;;;;;;24.00;99.80;;;;;;5117419;28;20498;-71
2023/10/12 14:30:13;;;;;;;1.35;0.63;;;24.00;99.90;;;;;;5104949;28;19907;-71
2023/10/12 14:32:40;;;;;;;3.28;1.10;;;24.10;99.70;;;;;;5100860;28;20020;-71
2023/10/12 14:35:07;;;;;;;2.55;1.10;;;24.10;99.90;;;;;;5098909;28;20027;-71
2023/10/12 14:37:36;;;;;;;2.80;1.30;;;24.20;99.90;;;;;;5099565;28;20023;-72
2023/10/12 14:40:05;;;;;;;3.15;1.10;;;24.30;99.70;;;;;;5116628;28;20016;-72
2023/10/12 14:42:31;;;;;;;3.53;1.20;;;24.20;98.40;;;;;;5116617;28;20042;-71
2023/10/12 14:44:57;;;;;;;4.35;1.08;;;24.00;98.70;;;;;;5116667;28;20016;-71
2023/10/12 14:47:23;;;;;;;4.20;1.08;;;24.00;98.60;;;;;;5116730;28;20461;-71
2023/10/12 14:49:50;;;;;;;2.97;1.25;;;24.00;99.00;;;;;;5115652;28;20011;-70
2023/10/12 14:52:17;;;;;;;2.55;0.70;;;23.90;99.10;;;;;;5098438;28;20043;-69
2023/10/12 14:54:43;;;;;;;2.08;0.82;;;23.80;98.10;;;;;;5095308;28;20045;-71
2023/10/12 14:57:10;;;;;;;3.28;1.20;;;23.70;98.30;;;;;;5119738;28;20019;-71
2023/10/12 14:59:36;;;;;;;3.17;1.00;;;23.60;99.40;;;;;;5099013;28;20041;-69
2023/10/12 15:02:09;;;;;;;2.67;0.90;;;23.50;99.10;;;;;;5119527;28;20028;-72